createdAt,value
2022-09-22T00:01:36.030Z,0.40
2022-09-22T00:04:07.358Z,0.40
2022-09-22T00:06:38.828Z,0.37
2022-09-22T00:09:10.473Z,0.40
2022-09-22T00:11:43.152Z,0.30
2022-09-22T00:14:13.588Z,0.30
2022-09-22T00:16:44.838Z,0.30
2022-09-22T00:19:15.590Z,0.43
2022-09-22T00:21:44.133Z,0.33
2022-09-22T00:24:13.949Z,0.30
2022-09-22T00:26:42.150Z,0.30
2022-09-22T00:29:11.104Z,0.40
2022-09-22T00:31:41.241Z,0.30
2022-09-22T00:34:10.349Z,0.30
2022-09-22T00:36:38.537Z,0.50
2022-09-22T00:39:07.707Z,0.30
2022-09-22T00:41:40.586Z,0.40
2022-09-22T00:44:40.159Z,0.30
2022-09-22T00:47:16.186Z,0.30
2022-09-22T00:49:50.848Z,0.30
2022-09-22T00:52:26.186Z,0.40
2022-09-22T00:54:57.925Z,0.40
2022-09-22T00:57:29.672Z,0.30
2022-09-22T00:59:59.400Z,0.30
2022-09-22T01:02:27.192Z,0.53
2022-09-22T01:05:08.436Z,0.37
2022-09-22T01:07:38.202Z,0.40
2022-09-22T01:10:07.629Z,0.50
2022-09-22T01:12:38.138Z,0.40
2022-09-22T01:15:41.522Z,0.40
2022-09-22T01:18:19.581Z,0.30
2022-09-22T01:21:15.579Z,0.30
2022-09-22T01:24:25.717Z,0.30
2022-09-22T01:27:41.513Z,0.40
2022-09-22T01:30:23.252Z,0.40
2022-09-22T01:33:16.665Z,0.40
2022-09-22T01:35:54.761Z,0.40
2022-09-22T01:38:33.046Z,0.40
2022-09-22T01:41:04.871Z,0.30
2022-09-22T01:43:41.631Z,0.30
2022-09-22T01:46:15.899Z,0.40
2022-09-22T01:48:48.118Z,0.30
2022-09-22T01:51:20.738Z,0.30
2022-09-22T01:53:53.546Z,0.40
2022-09-22T01:56:24.328Z,0.33
2022-09-22T01:58:55.447Z,0.40
2022-09-22T02:01:28.478Z,0.33
2022-09-22T02:04:02.875Z,0.40
2022-09-22T02:06:34.911Z,0.40
2022-09-22T02:09:07.338Z,0.40
2022-09-22T02:11:35.267Z,0.30
2022-09-22T02:14:04.360Z,0.30
2022-09-22T02:16:34.800Z,0.30
2022-09-22T02:19:12.876Z,0.30
2022-09-22T02:21:44.661Z,0.40
2022-09-22T02:24:29.919Z,0.30
2022-09-22T02:27:00.236Z,0.47
2022-09-22T02:29:32.094Z,0.40
2022-09-22T02:32:06.181Z,0.40
2022-09-22T02:34:35.309Z,0.40
2022-09-22T02:37:09.950Z,0.33
2022-09-22T02:39:41.966Z,0.30
2022-09-22T02:42:25.712Z,0.40
2022-09-22T02:45:01.386Z,0.30
2022-09-22T02:47:36.393Z,0.33
2022-09-22T02:50:09.215Z,0.30
2022-09-22T02:52:39.167Z,0.30
2022-09-22T02:55:08.572Z,0.37
2022-09-22T02:57:36.805Z,0.40
2022-09-22T03:00:05.600Z,0.30
2022-09-22T03:02:35.182Z,0.40
2022-09-22T03:05:03.241Z,0.30
2022-09-22T03:07:31.129Z,0.30
2022-09-22T03:09:58.892Z,0.40
2022-09-22T03:12:26.813Z,0.40
2022-09-22T03:14:54.705Z,0.40
2022-09-22T03:17:22.666Z,0.37
2022-09-22T03:19:51.924Z,0.37
2022-09-22T03:22:19.857Z,0.30
2022-09-22T03:24:47.803Z,0.43
2022-09-22T03:27:15.604Z,0.30
2022-09-22T03:29:43.539Z,0.37
2022-09-22T03:32:11.464Z,0.40
2022-09-22T03:34:41.883Z,0.30
2022-09-22T03:37:11.163Z,0.37
2022-09-22T03:39:39.066Z,0.40
2022-09-22T03:42:07.184Z,0.40
2022-09-22T03:44:35.087Z,0.40
2022-09-22T03:47:02.921Z,0.30
2022-09-22T03:49:31.337Z,0.30
2022-09-22T03:51:59.319Z,0.40
2022-09-22T03:54:28.735Z,0.40
2022-09-22T03:56:56.718Z,0.40
2022-09-22T03:59:24.745Z,0.37
2022-09-22T04:01:57.461Z,0.37
2022-09-22T04:04:27.878Z,0.30
2022-09-22T04:06:55.919Z,0.37
2022-09-22T04:09:23.713Z,0.40
2022-09-22T04:11:53.043Z,0.30
2022-09-22T04:14:21.942Z,0.30
2022-09-22T04:16:49.935Z,0.40
2022-09-22T04:19:18.686Z,0.40
2022-09-22T04:21:46.607Z,0.30
2022-09-22T04:24:14.386Z,0.40
2022-09-22T04:27:01.911Z,0.30
2022-09-22T04:29:36.266Z,0.40
2022-09-22T04:32:04.383Z,0.37
2022-09-22T04:34:34.572Z,0.37
2022-09-22T04:37:02.576Z,0.40
2022-09-22T04:39:30.588Z,0.40
2022-09-22T04:41:58.599Z,0.40
2022-09-22T04:44:26.371Z,0.30
2022-09-22T04:46:57.185Z,0.30
2022-09-22T04:49:25.097Z,0.40
2022-09-22T04:51:52.985Z,0.40
2022-09-22T04:54:20.952Z,0.40
2022-09-22T04:56:51.864Z,0.40
2022-09-22T04:59:19.772Z,0.33
2022-09-22T05:01:47.770Z,0.33
2022-09-22T05:04:18.081Z,0.30
2022-09-22T05:06:46.031Z,0.40
2022-09-22T05:09:14.402Z,0.37
2022-09-22T05:11:50.456Z,0.40
2022-09-22T05:14:26.508Z,0.30
2022-09-22T05:16:58.321Z,0.30
2022-09-22T05:19:30.048Z,0.40
2022-09-22T05:22:03.835Z,0.43
2022-09-22T05:24:33.598Z,0.30
2022-09-22T05:27:02.700Z,0.40
2022-09-22T05:29:30.604Z,0.40
2022-09-22T05:31:58.628Z,0.40
2022-09-22T05:34:30.968Z,0.40
2022-09-22T05:36:59.198Z,0.40
2022-09-22T05:39:28.070Z,0.30
2022-09-22T05:41:56.010Z,0.37
2022-09-22T05:44:23.973Z,0.40
2022-09-22T05:46:54.619Z,0.40
2022-09-22T05:49:22.495Z,0.33
2022-09-22T05:51:55.376Z,0.50
2022-09-22T05:54:23.454Z,0.40
2022-09-22T05:56:51.602Z,0.47
2022-09-22T05:59:19.777Z,0.40
2022-09-22T06:01:48.483Z,0.37
2022-09-22T06:04:16.591Z,0.37
2022-09-22T06:06:44.918Z,0.30
2022-09-22T06:09:16.382Z,0.40
2022-09-22T06:11:44.438Z,0.37
2022-09-22T06:14:12.319Z,0.33
2022-09-22T06:16:40.833Z,0.40
2022-09-22T06:19:09.235Z,0.40
2022-09-22T06:21:37.252Z,0.30
2022-09-22T06:24:06.866Z,0.40
2022-09-22T06:26:36.408Z,0.40
2022-09-22T06:29:04.526Z,0.30
2022-09-22T06:31:32.560Z,0.20
2022-09-22T06:34:04.240Z,0.20
2022-09-22T06:36:34.864Z,0.20
2022-09-22T06:39:03.039Z,0.20
2022-09-22T06:41:33.592Z,0.10
2022-09-22T06:44:03.323Z,0.20
2022-09-22T06:46:33.107Z,0.20
2022-09-22T06:49:01.798Z,0.20
2022-09-22T06:51:32.857Z,0.20
2022-09-22T06:54:04.145Z,0.20
2022-09-22T06:56:37.077Z,0.10
2022-09-22T06:59:12.246Z,0.20
2022-09-22T07:01:41.862Z,0.20
2022-09-22T07:04:10.688Z,0.20
2022-09-22T07:06:39.676Z,0.20
2022-09-22T07:09:09.272Z,0.20
2022-09-22T07:11:40.299Z,0.10
2022-09-22T07:14:10.342Z,0.20
2022-09-22T07:16:40.943Z,0.20
2022-09-22T07:19:09.181Z,0.20
2022-09-22T07:21:40.639Z,0.20
2022-09-22T07:24:09.500Z,0.20
2022-09-22T07:26:39.584Z,0.20
2022-09-22T07:29:13.691Z,0.20
2022-09-22T07:31:43.327Z,0.20
2022-09-22T07:34:11.427Z,0.10
2022-09-22T07:36:40.027Z,0.20
2022-09-22T07:39:10.923Z,0.20
2022-09-22T07:41:43.400Z,0.10
2022-09-22T07:44:32.157Z,0.20
2022-09-22T07:47:00.697Z,0.20
2022-09-22T07:49:28.727Z,0.10
2022-09-22T07:51:59.595Z,0.20
2022-09-22T07:54:28.404Z,0.17
2022-09-22T07:56:58.727Z,0.20
2022-09-22T07:59:28.495Z,0.20
2022-09-22T08:02:00.767Z,0.20
2022-09-22T08:04:31.904Z,0.20
2022-09-22T08:07:00.301Z,0.10
2022-09-22T08:09:29.809Z,0.17
2022-09-22T08:11:57.922Z,0.20
2022-09-22T08:14:26.127Z,0.20
2022-09-22T08:16:56.023Z,0.20
2022-09-22T08:19:24.864Z,0.10
2022-09-22T08:21:54.885Z,0.20
2022-09-22T08:24:24.613Z,0.20
2022-09-22T08:26:55.756Z,0.20
2022-09-22T08:29:24.708Z,0.10
2022-09-22T08:31:54.143Z,0.20
2022-09-22T08:34:23.838Z,0.20
2022-09-22T08:36:51.725Z,0.20
2022-09-22T08:39:20.341Z,0.10
2022-09-22T08:42:05.806Z,0.20
2022-09-22T08:44:41.216Z,0.20
2022-09-22T08:47:39.213Z,0.20
2022-09-22T08:50:48.067Z,0.20
2022-09-22T08:53:19.830Z,0.10
2022-09-22T08:55:56.572Z,0.20
2022-09-22T08:58:45.208Z,0.10
2022-09-22T09:01:32.360Z,0.13
2022-09-22T09:04:15.148Z,0.20
2022-09-22T09:06:52.134Z,0.20
2022-09-22T09:09:41.929Z,0.20
2022-09-22T09:12:29.623Z,0.20
2022-09-22T09:15:17.948Z,0.20
2022-09-22T09:17:48.185Z,0.10
2022-09-22T09:20:18.871Z,0.10
2022-09-22T09:22:55.868Z,0.20
2022-09-22T09:25:35.126Z,0.20
2022-09-22T09:28:09.712Z,0.10
2022-09-22T09:30:44.267Z,0.10
2022-09-22T09:33:19.493Z,0.20
2022-09-22T09:35:53.654Z,0.17
2022-09-22T09:38:35.421Z,0.10
2022-09-22T09:41:15.611Z,0.10
2022-09-22T09:43:45.491Z,0.20
2022-09-22T09:46:24.994Z,0.20
2022-09-22T09:49:05.788Z,0.10
2022-09-22T09:51:39.648Z,0.20
2022-09-22T09:54:14.538Z,0.10
2022-09-22T09:57:11.557Z,0.10
2022-09-22T09:59:54.783Z,0.10
2022-09-22T10:02:25.410Z,0.10
2022-09-22T10:04:56.082Z,0.20
2022-09-22T10:07:27.440Z,0.10
2022-09-22T10:09:57.270Z,0.10
2022-09-22T10:12:30.780Z,0.20
2022-09-22T10:15:00.369Z,0.20
2022-09-22T10:17:31.521Z,0.10
2022-09-22T10:20:21.221Z,0.10
2022-09-22T10:22:49.795Z,0.10
2022-09-22T10:25:24.706Z,0.10
2022-09-22T10:28:03.864Z,0.10
2022-09-22T10:30:37.303Z,0.10
2022-09-22T10:33:15.555Z,0.20
2022-09-22T10:35:45.618Z,0.10
2022-09-22T10:38:22.816Z,0.20
2022-09-22T10:41:00.305Z,0.17
2022-09-22T10:43:38.108Z,0.20
2022-09-22T10:46:26.393Z,0.17
2022-09-22T10:48:57.016Z,0.10
2022-09-22T10:51:42.457Z,0.20
2022-09-22T10:54:41.850Z,0.10
2022-09-22T10:57:29.484Z,0.10
2022-09-22T11:00:11.515Z,0.10
2022-09-22T11:03:11.275Z,0.10
2022-09-22T11:06:12.785Z,0.20
2022-09-22T11:09:19.650Z,0.10
2022-09-22T11:12:14.226Z,0.10
2022-09-22T11:14:59.557Z,0.10
2022-09-22T11:18:06.122Z,0.10
2022-09-22T11:20:37.089Z,0.20
2022-09-22T11:23:25.236Z,0.10
2022-09-22T11:26:08.932Z,0.10
2022-09-22T11:28:57.132Z,0.10
2022-09-22T11:31:42.477Z,0.10
2022-09-22T11:34:40.780Z,0.20
2022-09-22T11:37:27.373Z,0.10
2022-09-22T11:40:18.733Z,0.10
2022-09-22T11:42:55.446Z,0.10
2022-09-22T11:45:48.458Z,0.10
2022-09-22T11:48:37.743Z,0.10
2022-09-22T11:51:22.828Z,0.10
2022-09-22T11:54:09.147Z,0.10
2022-09-22T11:56:41.700Z,0.00
2022-09-22T11:59:24.765Z,0.10
2022-09-22T12:01:56.858Z,0.10
2022-09-22T12:04:37.663Z,0.10
2022-09-22T12:07:10.774Z,0.00
2022-09-22T12:09:47.026Z,0.10
2022-09-22T12:12:19.351Z,0.00
2022-09-22T12:15:00.336Z,0.10
2022-09-22T12:17:36.169Z,0.00
2022-09-22T12:20:15.995Z,0.00
2022-09-22T12:23:06.328Z,0.10
2022-09-22T12:25:49.505Z,0.10
2022-09-22T12:28:20.758Z,0.10
2022-09-22T12:31:02.329Z,0.20
2022-09-22T12:33:31.528Z,0.10
2022-09-22T12:36:02.582Z,0.10
2022-09-22T12:38:31.687Z,0.10
2022-09-22T12:41:04.538Z,0.10
2022-09-22T12:43:39.312Z,0.10
2022-09-22T12:46:22.590Z,0.10
2022-09-22T12:48:53.654Z,0.20
2022-09-22T12:51:41.885Z,0.10
2022-09-22T12:54:40.610Z,0.20
2022-09-22T12:57:30.366Z,0.00
2022-09-22T13:00:34.735Z,0.00
2022-09-22T13:03:47.859Z,0.10
2022-09-22T13:06:53.671Z,0.10
2022-09-22T13:09:25.466Z,0.00
2022-09-22T13:12:27.054Z,0.10
2022-09-22T13:15:23.386Z,0.10
2022-09-22T13:17:52.733Z,0.10
2022-09-22T13:20:25.293Z,0.10
2022-09-22T13:23:05.753Z,0.10
2022-09-22T13:25:33.836Z,0.10
2022-09-22T13:28:15.559Z,0.10
2022-09-22T13:30:48.495Z,0.00
2022-09-22T13:33:29.743Z,0.00
2022-09-22T13:36:03.408Z,0.10
2022-09-22T13:38:38.853Z,0.10
2022-09-22T13:41:21.368Z,0.00
2022-09-22T13:43:51.539Z,0.10
2022-09-22T13:46:34.050Z,0.10
2022-09-22T13:49:09.588Z,0.10
2022-09-22T13:52:21.111Z,0.00
2022-09-22T13:55:06.422Z,0.10
2022-09-22T13:57:41.433Z,0.10
2022-09-22T14:00:24.661Z,0.10
2022-09-22T14:03:07.211Z,0.10
2022-09-22T14:05:53.206Z,0.10
2022-09-22T14:08:29.687Z,0.10
2022-09-22T14:10:59.543Z,0.03
2022-09-22T14:14:01.000Z,0.00
2022-09-22T14:16:37.157Z,0.00
2022-09-22T14:19:23.170Z,0.10
2022-09-22T14:22:09.336Z,0.00
2022-09-22T14:24:45.114Z,0.03
2022-09-22T14:27:19.272Z,0.10
2022-09-22T14:29:49.403Z,0.10
2022-09-22T14:32:36.088Z,0.10
2022-09-22T14:35:07.669Z,0.10
2022-09-22T14:37:41.484Z,0.10
2022-09-22T14:40:19.643Z,0.10
2022-09-22T14:42:59.993Z,0.10
2022-09-22T14:45:39.941Z,0.17
2022-09-22T14:48:31.345Z,0.20
2022-09-22T14:51:21.524Z,0.13
2022-09-22T14:54:06.498Z,0.10
2022-09-22T14:56:38.394Z,0.10
2022-09-22T14:59:35.719Z,0.13
2022-09-22T15:02:22.389Z,0.10
2022-09-22T15:05:11.897Z,0.20
2022-09-22T15:07:52.527Z,0.10
2022-09-22T15:10:26.954Z,0.10
2022-09-22T15:13:22.888Z,0.10
2022-09-22T15:16:01.616Z,0.20
2022-09-22T15:18:43.259Z,0.10
2022-09-22T15:21:15.443Z,0.20
2022-09-22T15:23:50.130Z,0.10
2022-09-22T15:26:25.097Z,0.10
2022-09-22T15:28:56.086Z,0.20
2022-09-22T15:34:28.190Z,0.20
2022-09-22T15:37:02.296Z,0.20
2022-09-22T15:39:37.120Z,0.20
2022-09-22T15:42:10.348Z,0.20
2022-09-22T15:44:49.116Z,0.20
2022-09-22T15:47:17.789Z,0.20
2022-09-22T15:49:46.059Z,0.20
2022-09-22T15:52:14.074Z,0.20
2022-09-22T15:54:43.499Z,0.17
2022-09-22T15:57:15.171Z,0.20
2022-09-22T15:59:43.215Z,0.20
2022-09-22T16:02:13.474Z,0.20
2022-09-22T16:04:41.727Z,0.20
2022-09-22T16:07:26.991Z,0.20
2022-09-22T16:09:55.041Z,0.20
2022-09-22T16:12:28.234Z,0.20
2022-09-22T16:14:57.431Z,0.20
2022-09-22T16:17:25.311Z,0.20
2022-09-22T16:19:53.276Z,0.20
2022-09-22T16:22:21.371Z,0.10
2022-09-22T16:24:49.274Z,0.20
2022-09-22T16:27:17.175Z,0.20
2022-09-22T16:29:46.366Z,0.20
2022-09-22T16:32:14.341Z,0.20
2022-09-22T16:34:42.222Z,0.20
2022-09-22T16:37:10.321Z,0.20
2022-09-22T16:39:38.329Z,0.20
2022-09-22T16:42:06.684Z,0.20
2022-09-22T16:44:34.725Z,0.20
2022-09-22T16:47:04.356Z,0.20
2022-09-22T16:49:34.051Z,0.20
2022-09-22T16:52:02.171Z,0.20
2022-09-22T16:54:30.986Z,0.20
2022-09-22T16:57:03.548Z,0.10
2022-09-22T16:59:31.575Z,0.20
2022-09-22T17:01:59.586Z,0.20
2022-09-22T17:04:29.038Z,0.20
2022-09-22T17:06:58.375Z,0.20
2022-09-22T17:09:26.974Z,0.20
2022-09-22T17:11:55.103Z,0.20
2022-09-22T17:14:24.344Z,0.20
2022-09-22T17:16:54.320Z,0.20
2022-09-22T17:19:23.805Z,0.20
2022-09-22T17:21:55.286Z,0.20
2022-09-22T17:24:24.256Z,0.20
2022-09-22T17:26:54.296Z,0.30
2022-09-22T17:29:25.059Z,0.20
2022-09-22T17:31:56.472Z,0.20
2022-09-22T17:34:24.770Z,0.20
2022-09-22T17:36:55.480Z,0.20
2022-09-22T17:39:24.142Z,0.20
2022-09-22T17:41:52.581Z,0.20
2022-09-22T17:44:21.519Z,0.20
2022-09-22T17:47:17.185Z,0.20
2022-09-22T17:50:02.821Z,0.20
2022-09-22T17:52:49.936Z,0.20
2022-09-22T17:55:21.132Z,0.20
2022-09-22T17:57:50.495Z,0.20
2022-09-22T18:00:22.085Z,0.20
2022-09-22T18:02:55.419Z,0.10
2022-09-22T18:05:27.186Z,0.20
2022-09-22T18:08:00.888Z,0.20
2022-09-22T18:10:33.360Z,0.20
2022-09-22T18:13:07.858Z,0.20
2022-09-22T18:15:42.008Z,0.20
2022-09-22T18:18:14.908Z,0.20
2022-09-22T18:20:42.844Z,0.20
2022-09-22T18:23:13.898Z,0.20
2022-09-22T18:25:41.916Z,0.20
2022-09-22T18:28:11.960Z,0.20
2022-09-22T18:30:40.830Z,0.20
2022-09-22T18:33:10.983Z,0.20
2022-09-22T18:35:41.247Z,0.20
2022-09-22T18:38:12.664Z,0.20
2022-09-22T18:40:41.937Z,0.20
2022-09-22T18:43:10.393Z,0.20
2022-09-22T18:45:38.492Z,0.20
2022-09-22T18:48:07.215Z,0.20
2022-09-22T18:50:35.705Z,0.20
2022-09-22T18:53:03.656Z,0.20
2022-09-22T18:55:32.977Z,0.20
2022-09-22T18:58:01.120Z,0.20
2022-09-22T19:00:29.031Z,0.20
2022-09-22T19:02:57.519Z,0.20
2022-09-22T19:05:25.468Z,0.23
2022-09-22T19:07:54.845Z,0.20
2022-09-22T19:10:23.536Z,0.20
2022-09-22T19:12:54.144Z,0.20
2022-09-22T19:15:23.131Z,0.20
2022-09-22T19:17:51.046Z,0.20
2022-09-22T19:20:22.905Z,0.20
2022-09-22T19:22:52.340Z,0.20
2022-09-22T19:25:23.875Z,0.20
2022-09-22T19:27:53.465Z,0.20
2022-09-22T19:30:25.734Z,0.20
2022-09-22T19:32:54.814Z,0.20
2022-09-22T19:35:28.529Z,0.20
2022-09-22T19:37:57.406Z,0.23
2022-09-22T19:40:25.786Z,0.20
2022-09-22T19:42:55.782Z,0.20
2022-09-22T19:45:25.126Z,0.20
2022-09-22T19:47:56.614Z,0.20
2022-09-22T19:50:26.289Z,0.23
2022-09-22T19:52:54.447Z,0.30
2022-09-22T19:55:24.880Z,0.20
2022-09-22T19:57:54.259Z,0.30
2022-09-22T20:00:26.312Z,0.20
2022-09-22T20:02:58.679Z,0.30
2022-09-22T20:05:30.240Z,0.30
2022-09-22T20:07:58.257Z,0.20
2022-09-22T20:10:26.585Z,0.30
2022-09-22T20:12:55.910Z,0.20
2022-09-22T20:15:25.271Z,0.20
2022-09-22T20:17:54.110Z,0.30
2022-09-22T20:20:24.234Z,0.20
2022-09-22T20:22:58.121Z,0.20
2022-09-22T20:25:29.867Z,0.30
2022-09-22T20:27:59.420Z,0.20
2022-09-22T20:30:27.753Z,0.20
2022-09-22T20:32:59.049Z,0.20
2022-09-22T20:35:27.213Z,0.30
2022-09-22T20:37:57.540Z,0.27
2022-09-22T20:40:25.868Z,0.20
2022-09-22T20:42:55.318Z,0.30
2022-09-22T20:45:24.822Z,0.20
2022-09-22T20:47:54.925Z,0.20
2022-09-22T20:50:23.038Z,0.20
2022-09-22T20:52:52.765Z,0.20
2022-09-22T20:55:22.164Z,0.30
2022-09-22T20:57:50.146Z,0.30
2022-09-22T21:00:18.572Z,0.20
2022-09-22T21:02:48.880Z,0.30
2022-09-22T21:05:16.751Z,0.30
2022-09-22T21:07:44.624Z,0.30
2022-09-22T21:10:36.226Z,0.20
2022-09-22T21:13:04.089Z,0.30
2022-09-22T21:15:32.448Z,0.20
2022-09-22T21:18:04.201Z,0.30
2022-09-22T21:20:32.296Z,0.30
2022-09-22T21:23:01.400Z,0.30
2022-09-22T21:25:29.436Z,0.30
2022-09-22T21:27:57.475Z,0.30
2022-09-22T21:30:25.679Z,0.20
2022-09-22T21:32:53.734Z,0.20
2022-09-22T21:35:23.053Z,0.20
2022-09-22T21:37:51.928Z,0.20
2022-09-22T21:40:20.504Z,0.30
2022-09-22T21:42:48.570Z,0.30
2022-09-22T21:45:18.376Z,0.20
2022-09-22T21:47:46.335Z,0.20
2022-09-22T21:50:14.446Z,0.20
2022-09-22T21:52:45.527Z,0.23
2022-09-22T21:55:16.414Z,0.30
2022-09-22T21:57:44.287Z,0.20
2022-09-22T22:00:14.244Z,0.30
2022-09-22T22:02:56.002Z,0.30
2022-09-22T22:05:24.226Z,0.20
2022-09-22T22:07:53.506Z,0.20
2022-09-22T22:10:21.499Z,0.20
2022-09-22T22:12:50.783Z,0.20
2022-09-22T22:15:18.964Z,0.20
2022-09-22T22:17:49.365Z,0.20
2022-09-22T22:20:20.349Z,0.20
2022-09-22T22:22:48.187Z,0.23
2022-09-22T22:25:19.544Z,0.20
2022-09-22T22:27:47.715Z,0.20
2022-09-22T22:30:18.084Z,0.30
2022-09-22T22:32:47.058Z,0.20
2022-09-22T22:35:15.141Z,0.20
2022-09-22T22:37:45.714Z,0.20
2022-09-22T22:40:18.168Z,0.30
2022-09-22T22:42:47.345Z,0.30
2022-09-22T22:45:15.591Z,0.20
2022-09-22T22:47:43.590Z,0.30
2022-09-22T22:50:11.548Z,0.20
2022-09-22T22:52:42.188Z,0.20
2022-09-22T22:55:10.553Z,0.30
2022-09-22T22:57:39.858Z,0.20
2022-09-22T23:00:09.127Z,0.30
2022-09-22T23:02:36.931Z,0.40
2022-09-22T23:05:05.113Z,0.43
2022-09-22T23:07:33.252Z,0.30
2022-09-22T23:10:07.146Z,0.20
2022-09-22T23:12:35.870Z,0.30
2022-09-22T23:15:05.742Z,0.30
2022-09-22T23:17:33.537Z,0.23
2022-09-22T23:20:01.400Z,0.30
2022-09-22T23:22:29.528Z,0.30
2022-09-22T23:24:57.434Z,0.30
2022-09-22T23:27:25.473Z,0.40
2022-09-22T23:29:54.446Z,0.30
2022-09-22T23:32:23.721Z,0.40
2022-09-22T23:34:51.989Z,0.30
2022-09-22T23:37:19.968Z,0.40
2022-09-22T23:39:50.831Z,0.30
2022-09-22T23:42:18.769Z,0.30
2022-09-22T23:44:46.624Z,0.40
2022-09-22T23:47:16.346Z,0.37
2022-09-22T23:49:46.203Z,0.33
2022-09-22T23:52:14.060Z,0.30
2022-09-22T23:54:44.873Z,0.40
2022-09-22T23:57:12.694Z,0.30
2022-09-22T23:59:43.657Z,0.40
